sensor_id;sensor_type;location;lat;lon;timestamp;P1;durP1;ratioP1;P2;durP2;ratioP2
6529;SDS011;3298;42.688;23.366;2022-10-03T00:02:34;1.83;;;1.47;;
6529;SDS011;3298;42.688;23.366;2022-10-03T00:05:13;1.50;;;1.40;;
6529;SDS011;3298;42.688;23.366;2022-10-03T00:08:03;2.03;;;1.80;;
6529;SDS011;3298;42.688;23.366;2022-10-03T00:10:46;2.27;;;1.40;;
6529;SDS011;3298;42.688;23.366;2022-10-03T00:13:23;5.70;;;1.80;;
6529;SDS011;3298;42.688;23.366;2022-10-03T00:16:03;1.37;;;1.37;;
6529;SDS011;3298;42.688;23.366;2022-10-03T00:18:39;1.63;;;1.53;;
6529;SDS011;3298;42.688;23.366;2022-10-03T00:21:21;2.70;;;1.70;;
6529;SDS011;3298;42.688;23.366;2022-10-03T00:24:01;1.57;;;1.47;;
6529;SDS011;3298;42.688;23.366;2022-10-03T00:26:40;1.80;;;1.70;;
6529;SDS011;3298;42.688;23.366;2022-10-03T00:29:21;2.87;;;1.13;;
6529;SDS011;3298;42.688;23.366;2022-10-03T00:32:01;1.47;;;1.40;;
6529;SDS011;3298;42.688;23.366;2022-10-03T00:34:42;3.23;;;2.93;;
6529;SDS011;3298;42.688;23.366;2022-10-03T00:37:25;6.27;;;3.27;;
6529;SDS011;3298;42.688;23.366;2022-10-03T00:40:06;5.97;;;3.50;;
6529;SDS011;3298;42.688;23.366;2022-10-03T00:43:05;4.10;;;3.50;;
6529;SDS011;3298;42.688;23.366;2022-10-03T00:46:10;4.83;;;3.43;;
6529;SDS011;3298;42.688;23.366;2022-10-03T00:49:02;4.67;;;3.50;;
6529;SDS011;3298;42.688;23.366;2022-10-03T00:52:04;3.30;;;3.10;;
6529;SDS011;3298;42.688;23.366;2022-10-03T00:54:47;3.27;;;3.07;;
6529;SDS011;3298;42.688;23.366;2022-10-03T00:57:34;3.53;;;3.33;;
6529;SDS011;3298;42.688;23.366;2022-10-03T01:00:19;6.87;;;3.53;;
6529;SDS011;3298;42.688;23.366;2022-10-03T01:02:53;4.20;;;3.20;;
6529;SDS011;3298;42.688;23.366;2022-10-03T01:05:38;3.57;;;3.37;;
6529;SDS011;3298;42.688;23.366;2022-10-03T01:08:25;4.87;;;3.07;;
6529;SDS011;3298;42.688;23.366;2022-10-03T01:11:26;5.33;;;3.10;;
6529;SDS011;3298;42.688;23.366;2022-10-03T01:14:05;5.17;;;3.10;;
6529;SDS011;3298;42.688;23.366;2022-10-03T01:16:49;3.33;;;3.03;;
6529;SDS011;3298;42.688;23.366;2022-10-03T01:19:27;5.07;;;3.57;;
6529;SDS011;3298;42.688;23.366;2022-10-03T01:22:17;3.10;;;2.40;;
6529;SDS011;3298;42.688;23.366;2022-10-03T01:25:05;5.10;;;2.90;;
6529;SDS011;3298;42.688;23.366;2022-10-03T01:27:41;5.47;;;2.63;;
6529;SDS011;3298;42.688;23.366;2022-10-03T01:30:27;3.37;;;3.07;;
6529;SDS011;3298;42.688;23.366;2022-10-03T01:33:00;3.20;;;2.90;;
6529;SDS011;3298;42.688;23.366;2022-10-03T01:35:35;2.30;;;2.20;;
6529;SDS011;3298;42.688;23.366;2022-10-03T01:38:13;3.27;;;2.57;;
6529;SDS011;3298;42.688;23.366;2022-10-03T01:40:46;4.13;;;2.80;;
6529;SDS011;3298;42.688;23.366;2022-10-03T01:43:20;2.37;;;2.27;;
6529;SDS011;3298;42.688;23.366;2022-10-03T01:46:03;2.67;;;2.57;;
6529;SDS011;3298;42.688;23.366;2022-10-03T01:48:39;3.00;;;2.80;;
6529;SDS011;3298;42.688;23.366;2022-10-03T01:51:13;4.57;;;2.50;;
6529;SDS011;3298;42.688;23.366;2022-10-03T01:53:49;2.70;;;2.50;;
6529;SDS011;3298;42.688;23.366;2022-10-03T01:56:26;2.40;;;2.30;;
6529;SDS011;3298;42.688;23.366;2022-10-03T01:58:59;2.53;;;2.43;;
6529;SDS011;3298;42.688;23.366;2022-10-03T02:01:35;2.20;;;2.10;;
6529;SDS011;3298;42.688;23.366;2022-10-03T02:04:11;1.97;;;1.87;;
6529;SDS011;3298;42.688;23.366;2022-10-03T02:06:47;1.77;;;1.67;;
6529;SDS011;3298;42.688;23.366;2022-10-03T02:09:23;1.60;;;1.60;;
6529;SDS011;3298;42.688;23.366;2022-10-03T02:12:09;2.13;;;1.77;;
6529;SDS011;3298;42.688;23.366;2022-10-03T02:14:47;3.60;;;1.57;;
6529;SDS011;3298;42.688;23.366;2022-10-03T02:17:22;5.27;;;1.67;;
6529;SDS011;3298;42.688;23.366;2022-10-03T02:19:56;2.77;;;2.50;;
6529;SDS011;3298;42.688;23.366;2022-10-03T02:22:32;3.70;;;2.33;;
6529;SDS011;3298;42.688;23.366;2022-10-03T02:25:08;2.90;;;2.60;;
6529;SDS011;3298;42.688;23.366;2022-10-03T02:27:48;3.80;;;3.20;;
6529;SDS011;3298;42.688;23.366;2022-10-03T02:30:45;3.93;;;3.50;;
6529;SDS011;3298;42.688;23.366;2022-10-03T02:33:48;4.13;;;3.83;;
6529;SDS011;3298;42.688;23.366;2022-10-03T02:36:41;3.40;;;3.20;;
6529;SDS011;3298;42.688;23.366;2022-10-03T02:39:45;4.80;;;2.70;;
6529;SDS011;3298;42.688;23.366;2022-10-03T02:48:57;2.20;;;2.10;;
6529;SDS011;3298;42.688;23.366;2022-10-03T02:54:55;2.90;;;2.70;;
6529;SDS011;3298;42.688;23.366;2022-10-03T02:57:40;3.10;;;2.83;;
6529;SDS011;3298;42.688;23.366;2022-10-03T03:00:31;2.67;;;2.47;;
6529;SDS011;3298;42.688;23.366;2022-10-03T03:03:17;4.90;;;3.27;;
6529;SDS011;3298;42.688;23.366;2022-10-03T03:08:59;3.70;;;3.03;;
6529;SDS011;3298;42.688;23.366;2022-10-03T03:11:42;2.80;;;2.60;;
6529;SDS011;3298;42.688;23.366;2022-10-03T03:17:38;3.80;;;2.10;;
6529;SDS011;3298;42.688;23.366;2022-10-03T03:20:20;3.20;;;2.93;;
6529;SDS011;3298;42.688;23.366;2022-10-03T03:26:16;2.77;;;2.57;;
6529;SDS011;3298;42.688;23.366;2022-10-03T03:28:58;2.77;;;2.17;;
6529;SDS011;3298;42.688;23.366;2022-10-03T03:31:35;2.93;;;2.73;;
6529;SDS011;3298;42.688;23.366;2022-10-03T03:34:08;3.73;;;3.00;;
6529;SDS011;3298;42.688;23.366;2022-10-03T03:36:46;2.83;;;2.67;;
6529;SDS011;3298;42.688;23.366;2022-10-03T03:39:37;3.97;;;2.77;;
6529;SDS011;3298;42.688;23.366;2022-10-03T03:42:38;5.03;;;2.70;;
6529;SDS011;3298;42.688;23.366;2022-10-03T03:45:24;3.20;;;2.93;;
6529;SDS011;3298;42.688;23.366;2022-10-03T03:50:54;2.90;;;2.70;;
6529;SDS011;3298;42.688;23.366;2022-10-03T03:53:42;6.13;;;3.53;;
6529;SDS011;3298;42.688;23.366;2022-10-03T03:56:37;3.43;;;3.07;;
6529;SDS011;3298;42.688;23.366;2022-10-03T03:59:35;4.23;;;3.00;;
6529;SDS011;3298;42.688;23.366;2022-10-03T04:02:10;3.70;;;3.50;;
6529;SDS011;3298;42.688;23.366;2022-10-03T04:04:58;3.07;;;2.97;;
6529;SDS011;3298;42.688;23.366;2022-10-03T04:07:34;2.80;;;2.60;;
6529;SDS011;3298;42.688;23.366;2022-10-03T04:10:15;3.10;;;2.80;;
6529;SDS011;3298;42.688;23.366;2022-10-03T04:12:58;3.07;;;2.83;;
6529;SDS011;3298;42.688;23.366;2022-10-03T04:15:39;3.43;;;3.23;;
6529;SDS011;3298;42.688;23.366;2022-10-03T04:18:31;6.07;;;2.93;;
6529;SDS011;3298;42.688;23.366;2022-10-03T04:24:36;3.23;;;3.00;;
6529;SDS011;3298;42.688;23.366;2022-10-03T04:27:30;2.97;;;2.77;;
6529;SDS011;3298;42.688;23.366;2022-10-03T04:30:15;4.73;;;3.00;;
6529;SDS011;3298;42.688;23.366;2022-10-03T04:32:55;3.53;;;3.00;;
6529;SDS011;3298;42.688;23.366;2022-10-03T04:35:45;5.90;;;3.03;;
6529;SDS011;3298;42.688;23.366;2022-10-03T04:38:24;3.97;;;3.40;;
6529;SDS011;3298;42.688;23.366;2022-10-03T04:41:04;3.63;;;3.03;;
6529;SDS011;3298;42.688;23.366;2022-10-03T04:43:39;4.27;;;3.10;;
6529;SDS011;3298;42.688;23.366;2022-10-03T04:46:17;3.60;;;3.30;;
6529;SDS011;3298;42.688;23.366;2022-10-03T04:48:54;3.50;;;3.20;;
6529;SDS011;3298;42.688;23.366;2022-10-03T04:51:33;3.50;;;3.17;;
6529;SDS011;3298;42.688;23.366;2022-10-03T04:54:12;6.50;;;3.23;;
6529;SDS011;3298;42.688;23.366;2022-10-03T04:56:48;6.53;;;3.37;;
6529;SDS011;3298;42.688;23.366;2022-10-03T05:02:26;4.03;;;2.70;;
6529;SDS011;3298;42.688;23.366;2022-10-03T05:05:10;5.80;;;2.87;;
6529;SDS011;3298;42.688;23.366;2022-10-03T05:07:47;13.00;;;3.80;;
6529;SDS011;3298;42.688;23.366;2022-10-03T05:10:22;4.20;;;3.80;;
6529;SDS011;3298;42.688;23.366;2022-10-03T05:13:01;4.50;;;3.70;;
6529;SDS011;3298;42.688;23.366;2022-10-03T05:15:38;3.90;;;3.03;;
6529;SDS011;3298;42.688;23.366;2022-10-03T05:18:17;4.77;;;3.50;;
6529;SDS011;3298;42.688;23.366;2022-10-03T05:20:50;7.10;;;3.67;;
6529;SDS011;3298;42.688;23.366;2022-10-03T05:23:31;3.40;;;2.80;;
6529;SDS011;3298;42.688;23.366;2022-10-03T05:26:10;3.87;;;3.03;;
6529;SDS011;3298;42.688;23.366;2022-10-03T05:28:46;3.87;;;3.03;;
6529;SDS011;3298;42.688;23.366;2022-10-03T05:31:24;3.70;;;3.40;;
6529;SDS011;3298;42.688;23.366;2022-10-03T05:34:03;8.17;;;3.83;;
6529;SDS011;3298;42.688;23.366;2022-10-03T05:36:51;4.07;;;3.43;;
6529;SDS011;3298;42.688;23.366;2022-10-03T05:39:27;6.40;;;4.17;;
6529;SDS011;3298;42.688;23.366;2022-10-03T05:42:05;6.50;;;3.57;;
6529;SDS011;3298;42.688;23.366;2022-10-03T05:44:45;9.67;;;4.30;;
6529;SDS011;3298;42.688;23.366;2022-10-03T05:47:24;6.83;;;4.70;;
6529;SDS011;3298;42.688;23.366;2022-10-03T05:53:11;8.63;;;4.63;;
6529;SDS011;3298;42.688;23.366;2022-10-03T05:55:52;4.10;;;3.80;;
6529;SDS011;3298;42.688;23.366;2022-10-03T05:58:33;7.97;;;4.23;;
6529;SDS011;3298;42.688;23.366;2022-10-03T06:04:38;21.53;;;19.17;;
6529;SDS011;3298;42.688;23.366;2022-10-03T06:07:27;19.00;;;17.10;;
6529;SDS011;3298;42.688;23.366;2022-10-03T06:10:01;21.97;;;15.40;;
6529;SDS011;3298;42.688;23.366;2022-10-03T06:12:52;16.27;;;14.00;;
6529;SDS011;3298;42.688;23.366;2022-10-03T06:15:38;18.27;;;16.43;;
6529;SDS011;3298;42.688;23.366;2022-10-03T06:21:36;15.73;;;14.10;;
6529;SDS011;3298;42.688;23.366;2022-10-03T06:24:50;15.73;;;14.13;;
6529;SDS011;3298;42.688;23.366;2022-10-03T06:30:51;11.80;;;9.33;;
6529;SDS011;3298;42.688;23.366;2022-10-03T06:33:47;12.70;;;11.20;;
6529;SDS011;3298;42.688;23.366;2022-10-03T06:39:52;8.00;;;7.30;;
6529;SDS011;3298;42.688;23.366;2022-10-03T06:42:51;9.63;;;7.40;;
6529;SDS011;3298;42.688;23.366;2022-10-03T06:45:48;10.13;;;7.20;;
6529;SDS011;3298;42.688;23.366;2022-10-03T06:48:49;9.70;;;6.00;;
6529;SDS011;3298;42.688;23.366;2022-10-03T06:51:42;4.23;;;3.83;;
6529;SDS011;3298;42.688;23.366;2022-10-03T06:54:30;3.70;;;3.40;;
6529;SDS011;3298;42.688;23.366;2022-10-03T07:00:40;3.80;;;3.00;;
6529;SDS011;3298;42.688;23.366;2022-10-03T07:03:33;2.73;;;2.63;;
6529;SDS011;3298;42.688;23.366;2022-10-03T07:12:26;2.80;;;2.60;;
6529;SDS011;3298;42.688;23.366;2022-10-03T07:24:33;2.90;;;2.70;;
6529;SDS011;3298;42.688;23.366;2022-10-03T07:27:26;3.07;;;2.87;;
6529;SDS011;3298;42.688;23.366;2022-10-03T07:30:12;2.40;;;2.30;;
6529;SDS011;3298;42.688;23.366;2022-10-03T07:36:01;6.40;;;5.90;;
6529;SDS011;3298;42.688;23.366;2022-10-03T07:39:32;4.93;;;4.53;;
6529;SDS011;3298;42.688;23.366;2022-10-03T07:42:24;4.20;;;3.90;;
6529;SDS011;3298;42.688;23.366;2022-10-03T07:51:16;6.03;;;5.43;;
6529;SDS011;3298;42.688;23.366;2022-10-03T08:00:09;5.03;;;4.57;;
6529;SDS011;3298;42.688;23.366;2022-10-03T08:02:55;4.83;;;4.37;;
6529;SDS011;3298;42.688;23.366;2022-10-03T08:06:00;9.80;;;4.20;;
6529;SDS011;3298;42.688;23.366;2022-10-03T08:08:52;5.07;;;4.60;;
6529;SDS011;3298;42.688;23.366;2022-10-03T08:14:47;4.83;;;4.37;;
6529;SDS011;3298;42.688;23.366;2022-10-03T08:17:43;4.57;;;4.27;;
6529;SDS011;3298;42.688;23.366;2022-10-03T08:26:38;4.20;;;3.90;;
6529;SDS011;3298;42.688;23.366;2022-10-03T08:29:21;7.53;;;4.17;;
6529;SDS011;3298;42.688;23.366;2022-10-03T08:35:24;7.03;;;4.40;;
6529;SDS011;3298;42.688;23.366;2022-10-03T08:41:21;15.10;;;8.40;;
6529;SDS011;3298;42.688;23.366;2022-10-03T08:44:18;3.20;;;2.93;;
6529;SDS011;3298;42.688;23.366;2022-10-03T08:47:20;2.60;;;2.40;;
6529;SDS011;3298;42.688;23.366;2022-10-03T08:53:10;2.80;;;2.17;;
6529;SDS011;3298;42.688;23.366;2022-10-03T08:55:58;1.97;;;1.80;;
6529;SDS011;3298;42.688;23.366;2022-10-03T08:58:47;1.70;;;1.23;;
6529;SDS011;3298;42.688;23.366;2022-10-03T09:01:41;1.60;;;1.50;;
6529;SDS011;3298;42.688;23.366;2022-10-03T09:07:54;1.50;;;1.50;;
6529;SDS011;3298;42.688;23.366;2022-10-03T09:16:59;1.70;;;1.60;;
6529;SDS011;3298;42.688;23.366;2022-10-03T09:19:54;3.47;;;2.83;;
6529;SDS011;3298;42.688;23.366;2022-10-03T09:25:43;1.70;;;1.60;;
6529;SDS011;3298;42.688;23.366;2022-10-03T09:34:38;2.03;;;1.20;;
6529;SDS011;3298;42.688;23.366;2022-10-03T09:37:29;1.33;;;1.23;;
6529;SDS011;3298;42.688;23.366;2022-10-03T09:40:36;1.53;;;1.40;;
6529;SDS011;3298;42.688;23.366;2022-10-03T09:46:43;1.30;;;1.23;;
6529;SDS011;3298;42.688;23.366;2022-10-03T09:50:01;1.30;;;1.30;;
6529;SDS011;3298;42.688;23.366;2022-10-03T09:52:59;1.50;;;1.40;;
6529;SDS011;3298;42.688;23.366;2022-10-03T09:55:51;1.37;;;1.27;;
6529;SDS011;3298;42.688;23.366;2022-10-03T09:58:44;1.47;;;1.47;;
6529;SDS011;3298;42.688;23.366;2022-10-03T10:01:29;2.00;;;1.80;;
6529;SDS011;3298;42.688;23.366;2022-10-03T10:04:23;1.47;;;1.37;;
6529;SDS011;3298;42.688;23.366;2022-10-03T10:13:12;1.20;;;1.20;;
6529;SDS011;3298;42.688;23.366;2022-10-03T10:16:01;1.50;;;1.00;;
6529;SDS011;3298;42.688;23.366;2022-10-03T10:21:59;1.30;;;1.30;;
6529;SDS011;3298;42.688;23.366;2022-10-03T10:27:57;1.07;;;1.07;;
6529;SDS011;3298;42.688;23.366;2022-10-03T10:46:17;1.00;;;1.00;;
6529;SDS011;3298;42.688;23.366;2022-10-03T11:08:09;0.80;;;0.80;;
6529;SDS011;3298;42.688;23.366;2022-10-03T11:14:16;1.80;;;0.90;;
6529;SDS011;3298;42.688;23.366;2022-10-03T11:20:15;2.20;;;1.17;;
6529;SDS011;3298;42.688;23.366;2022-10-03T11:41:57;2.43;;;1.70;;
6529;SDS011;3298;42.688;23.366;2022-10-03T11:44:28;1.90;;;1.80;;
6529;SDS011;3298;42.688;23.366;2022-10-03T11:47:01;1.67;;;1.60;;
6529;SDS011;3298;42.688;23.366;2022-10-03T11:52:41;1.73;;;1.70;;
6529;SDS011;3298;42.688;23.366;2022-10-03T11:55:23;2.10;;;2.00;;
6529;SDS011;3298;42.688;23.366;2022-10-03T11:58:02;2.23;;;2.13;;
6529;SDS011;3298;42.688;23.366;2022-10-03T12:00:43;2.07;;;1.97;;
6529;SDS011;3298;42.688;23.366;2022-10-03T12:03:15;2.50;;;2.30;;
6529;SDS011;3298;42.688;23.366;2022-10-03T12:05:47;2.13;;;2.03;;
6529;SDS011;3298;42.688;23.366;2022-10-03T12:08:38;2.50;;;2.40;;
6529;SDS011;3298;42.688;23.366;2022-10-03T12:11:22;2.60;;;2.50;;
6529;SDS011;3298;42.688;23.366;2022-10-03T12:14:03;2.27;;;2.17;;
6529;SDS011;3298;42.688;23.366;2022-10-03T12:16:44;2.07;;;1.97;;
6529;SDS011;3298;42.688;23.366;2022-10-03T12:19:27;2.40;;;2.30;;
6529;SDS011;3298;42.688;23.366;2022-10-03T12:21:59;2.40;;;2.20;;
6529;SDS011;3298;42.688;23.366;2022-10-03T12:24:34;3.10;;;2.90;;
6529;SDS011;3298;42.688;23.366;2022-10-03T12:27:09;2.83;;;2.73;;
6529;SDS011;3298;42.688;23.366;2022-10-03T12:29:46;2.33;;;2.23;;
6529;SDS011;3298;42.688;23.366;2022-10-03T12:32:27;2.13;;;2.03;;
6529;SDS011;3298;42.688;23.366;2022-10-03T12:38:00;1.80;;;1.70;;
6529;SDS011;3298;42.688;23.366;2022-10-03T12:40:37;2.10;;;2.00;;
6529;SDS011;3298;42.688;23.366;2022-10-03T12:43:11;1.93;;;1.83;;
6529;SDS011;3298;42.688;23.366;2022-10-03T12:45:53;2.30;;;2.10;;
6529;SDS011;3298;42.688;23.366;2022-10-03T12:48:37;2.00;;;1.90;;
6529;SDS011;3298;42.688;23.366;2022-10-03T12:51:14;2.00;;;1.90;;
6529;SDS011;3298;42.688;23.366;2022-10-03T12:54:04;2.30;;;2.20;;
6529;SDS011;3298;42.688;23.366;2022-10-03T12:56:40;2.07;;;1.97;;
6529;SDS011;3298;42.688;23.366;2022-10-03T12:59:13;2.07;;;1.97;;
6529;SDS011;3298;42.688;23.366;2022-10-03T13:01:57;2.30;;;2.20;;
6529;SDS011;3298;42.688;23.366;2022-10-03T13:04:44;2.13;;;2.03;;
6529;SDS011;3298;42.688;23.366;2022-10-03T13:07:21;2.77;;;2.63;;
6529;SDS011;3298;42.688;23.366;2022-10-03T13:10:02;2.10;;;2.00;;
6529;SDS011;3298;42.688;23.366;2022-10-03T13:12:39;2.07;;;1.97;;
6529;SDS011;3298;42.688;23.366;2022-10-03T13:18:30;1.87;;;1.77;;
6529;SDS011;3298;42.688;23.366;2022-10-03T13:21:14;1.97;;;1.87;;
6529;SDS011;3298;42.688;23.366;2022-10-03T13:23:46;2.67;;;2.57;;
6529;SDS011;3298;42.688;23.366;2022-10-03T13:26:18;1.93;;;1.93;;
6529;SDS011;3298;42.688;23.366;2022-10-03T13:28:56;2.60;;;1.90;;
6529;SDS011;3298;42.688;23.366;2022-10-03T13:31:42;1.83;;;1.73;;
6529;SDS011;3298;42.688;23.366;2022-10-03T13:34:23;1.63;;;1.53;;
6529;SDS011;3298;42.688;23.366;2022-10-03T13:36:54;1.53;;;1.43;;
6529;SDS011;3298;42.688;23.366;2022-10-03T13:39:26;2.27;;;1.57;;
6529;SDS011;3298;42.688;23.366;2022-10-03T13:42:08;1.40;;;1.40;;
6529;SDS011;3298;42.688;23.366;2022-10-03T13:44:41;1.00;;;1.00;;
6529;SDS011;3298;42.688;23.366;2022-10-03T13:47:20;1.10;;;1.10;;
6529;SDS011;3298;42.688;23.366;2022-10-03T13:49:58;1.10;;;1.10;;
6529;SDS011;3298;42.688;23.366;2022-10-03T13:52:31;2.20;;;1.43;;
6529;SDS011;3298;42.688;23.366;2022-10-03T13:55:08;1.60;;;1.50;;
6529;SDS011;3298;42.688;23.366;2022-10-03T13:57:43;1.50;;;1.50;;
6529;SDS011;3298;42.688;23.366;2022-10-03T14:00:13;2.23;;;1.77;;
6529;SDS011;3298;42.688;23.366;2022-10-03T14:02:47;1.90;;;1.80;;
6529;SDS011;3298;42.688;23.366;2022-10-03T14:05:34;2.03;;;1.83;;
6529;SDS011;3298;42.688;23.366;2022-10-03T14:08:11;1.80;;;1.70;;
6529;SDS011;3298;42.688;23.366;2022-10-03T14:10:53;1.60;;;1.60;;
6529;SDS011;3298;42.688;23.366;2022-10-03T14:13:31;1.90;;;1.80;;
6529;SDS011;3298;42.688;23.366;2022-10-03T14:16:11;1.90;;;1.80;;
6529;SDS011;3298;42.688;23.366;2022-10-03T14:18:48;1.47;;;1.47;;
6529;SDS011;3298;42.688;23.366;2022-10-03T14:21:28;1.23;;;1.23;;
6529;SDS011;3298;42.688;23.366;2022-10-03T14:24:15;1.20;;;1.20;;
6529;SDS011;3298;42.688;23.366;2022-10-03T14:27:01;2.53;;;1.30;;
6529;SDS011;3298;42.688;23.366;2022-10-03T14:29:38;1.47;;;1.40;;
6529;SDS011;3298;42.688;23.366;2022-10-03T14:32:17;1.10;;;1.00;;
6529;SDS011;3298;42.688;23.366;2022-10-03T14:34:51;1.00;;;1.00;;
6529;SDS011;3298;42.688;23.366;2022-10-03T14:37:29;0.93;;;0.93;;
6529;SDS011;3298;42.688;23.366;2022-10-03T14:40:08;1.00;;;1.00;;
6529;SDS011;3298;42.688;23.366;2022-10-03T14:42:47;1.20;;;1.20;;
6529;SDS011;3298;42.688;23.366;2022-10-03T14:45:22;2.30;;;1.50;;
6529;SDS011;3298;42.688;23.366;2022-10-03T14:47:54;1.40;;;1.40;;
6529;SDS011;3298;42.688;23.366;2022-10-03T14:50:29;1.20;;;1.20;;
6529;SDS011;3298;42.688;23.366;2022-10-03T14:53:00;1.40;;;1.40;;
6529;SDS011;3298;42.688;23.366;2022-10-03T14:55:31;1.33;;;1.33;;
6529;SDS011;3298;42.688;23.366;2022-10-03T14:58:03;1.87;;;1.43;;
6529;SDS011;3298;42.688;23.366;2022-10-03T15:00:40;1.77;;;1.67;;
6529;SDS011;3298;42.688;23.366;2022-10-03T15:09:01;1.60;;;1.60;;
6529;SDS011;3298;42.688;23.366;2022-10-03T15:11:34;2.83;;;1.63;;
6529;SDS011;3298;42.688;23.366;2022-10-03T15:14:03;1.77;;;1.67;;
6529;SDS011;3298;42.688;23.366;2022-10-03T15:16:34;1.67;;;1.67;;
6529;SDS011;3298;42.688;23.366;2022-10-03T15:19:08;1.67;;;1.57;;
6529;SDS011;3298;42.688;23.366;2022-10-03T15:21:44;1.50;;;1.40;;
6529;SDS011;3298;42.688;23.366;2022-10-03T15:24:18;1.70;;;1.60;;
6529;SDS011;3298;42.688;23.366;2022-10-03T15:26:50;2.23;;;1.53;;
6529;SDS011;3298;42.688;23.366;2022-10-03T15:29:21;1.60;;;1.50;;
6529;SDS011;3298;42.688;23.366;2022-10-03T15:31:49;1.30;;;1.30;;
6529;SDS011;3298;42.688;23.366;2022-10-03T15:34:17;1.10;;;1.10;;
6529;SDS011;3298;42.688;23.366;2022-10-03T15:36:47;1.30;;;1.30;;
6529;SDS011;3298;42.688;23.366;2022-10-03T15:39:18;2.00;;;1.40;;
6529;SDS011;3298;42.688;23.366;2022-10-03T15:41:53;2.27;;;1.67;;
6529;SDS011;3298;42.688;23.366;2022-10-03T15:44:24;1.73;;;1.63;;
6529;SDS011;3298;42.688;23.366;2022-10-03T15:46:57;1.70;;;1.60;;
6529;SDS011;3298;42.688;23.366;2022-10-03T15:49:30;2.00;;;1.90;;
6529;SDS011;3298;42.688;23.366;2022-10-03T15:52:05;1.63;;;1.53;;
6529;SDS011;3298;42.688;23.366;2022-10-03T15:54:40;1.90;;;1.80;;
6529;SDS011;3298;42.688;23.366;2022-10-03T15:57:16;1.80;;;1.70;;
6529;SDS011;3298;42.688;23.366;2022-10-03T15:59:48;2.20;;;1.53;;
6529;SDS011;3298;42.688;23.366;2022-10-03T16:02:20;1.63;;;1.23;;
6529;SDS011;3298;42.688;23.366;2022-10-03T16:04:53;1.37;;;1.37;;
6529;SDS011;3298;42.688;23.366;2022-10-03T16:07:23;2.97;;;1.67;;
6529;SDS011;3298;42.688;23.366;2022-10-03T16:10:05;1.80;;;1.70;;
6529;SDS011;3298;42.688;23.366;2022-10-03T16:15:30;1.90;;;1.80;;
6529;SDS011;3298;42.688;23.366;2022-10-03T16:18:11;1.87;;;1.77;;
6529;SDS011;3298;42.688;23.366;2022-10-03T16:21:11;1.63;;;1.53;;
6529;SDS011;3298;42.688;23.366;2022-10-03T16:23:44;2.50;;;1.77;;
6529;SDS011;3298;42.688;23.366;2022-10-03T16:26:17;2.00;;;1.53;;
6529;SDS011;3298;42.688;23.366;2022-10-03T16:28:49;5.47;;;1.43;;
6529;SDS011;3298;42.688;23.366;2022-10-03T16:31:20;1.83;;;1.60;;
6529;SDS011;3298;42.688;23.366;2022-10-03T16:33:51;2.47;;;2.37;;
6529;SDS011;3298;42.688;23.366;2022-10-03T16:36:23;1.80;;;1.70;;
6529;SDS011;3298;42.688;23.366;2022-10-03T16:38:51;1.73;;;1.50;;
6529;SDS011;3298;42.688;23.366;2022-10-03T16:41:23;1.93;;;1.83;;
6529;SDS011;3298;42.688;23.366;2022-10-03T16:43:54;2.07;;;1.93;;
6529;SDS011;3298;42.688;23.366;2022-10-03T16:46:23;3.83;;;2.27;;
6529;SDS011;3298;42.688;23.366;2022-10-03T16:48:52;2.07;;;1.97;;
6529;SDS011;3298;42.688;23.366;2022-10-03T16:51:40;2.63;;;2.47;;
6529;SDS011;3298;42.688;23.366;2022-10-03T16:54:10;2.60;;;1.70;;
6529;SDS011;3298;42.688;23.366;2022-10-03T16:56:42;2.40;;;2.20;;
6529;SDS011;3298;42.688;23.366;2022-10-03T16:59:13;1.90;;;1.80;;
6529;SDS011;3298;42.688;23.366;2022-10-03T17:01:44;3.87;;;2.07;;
6529;SDS011;3298;42.688;23.366;2022-10-03T17:04:18;1.83;;;1.63;;
6529;SDS011;3298;42.688;23.366;2022-10-03T17:06:48;4.30;;;1.90;;
6529;SDS011;3298;42.688;23.366;2022-10-03T17:09:19;5.30;;;2.23;;
6529;SDS011;3298;42.688;23.366;2022-10-03T17:11:56;2.30;;;1.83;;
6529;SDS011;3298;42.688;23.366;2022-10-03T17:14:25;2.00;;;1.90;;
6529;SDS011;3298;42.688;23.366;2022-10-03T17:16:57;1.70;;;1.60;;
6529;SDS011;3298;42.688;23.366;2022-10-03T17:19:30;1.53;;;1.43;;
6529;SDS011;3298;42.688;23.366;2022-10-03T17:22:04;1.60;;;1.53;;
6529;SDS011;3298;42.688;23.366;2022-10-03T17:24:37;1.60;;;1.30;;
6529;SDS011;3298;42.688;23.366;2022-10-03T17:27:16;1.60;;;1.50;;
6529;SDS011;3298;42.688;23.366;2022-10-03T17:29:49;1.50;;;1.23;;
6529;SDS011;3298;42.688;23.366;2022-10-03T17:32:22;1.80;;;1.70;;
6529;SDS011;3298;42.688;23.366;2022-10-03T17:34:54;2.93;;;2.10;;
6529;SDS011;3298;42.688;23.366;2022-10-03T17:37:34;2.10;;;2.00;;
6529;SDS011;3298;42.688;23.366;2022-10-03T17:43:37;2.50;;;1.87;;
6529;SDS011;3298;42.688;23.366;2022-10-03T17:46:11;1.80;;;1.70;;
6529;SDS011;3298;42.688;23.366;2022-10-03T17:48:46;2.03;;;1.90;;
6529;SDS011;3298;42.688;23.366;2022-10-03T17:51:26;2.87;;;2.10;;
6529;SDS011;3298;42.688;23.366;2022-10-03T17:53:57;1.80;;;1.70;;
6529;SDS011;3298;42.688;23.366;2022-10-03T17:56:26;1.77;;;1.67;;
6529;SDS011;3298;42.688;23.366;2022-10-03T17:58:58;1.70;;;1.60;;
6529;SDS011;3298;42.688;23.366;2022-10-03T18:01:32;2.43;;;1.90;;
6529;SDS011;3298;42.688;23.366;2022-10-03T18:04:03;3.30;;;1.70;;
6529;SDS011;3298;42.688;23.366;2022-10-03T18:06:43;2.00;;;1.90;;
6529;SDS011;3298;42.688;23.366;2022-10-03T18:09:26;3.03;;;2.10;;
6529;SDS011;3298;42.688;23.366;2022-10-03T18:14:49;2.00;;;1.77;;
6529;SDS011;3298;42.688;23.366;2022-10-03T18:17:46;1.70;;;1.60;;
6529;SDS011;3298;42.688;23.366;2022-10-03T18:20:30;1.60;;;1.50;;
6529;SDS011;3298;42.688;23.366;2022-10-03T18:23:12;1.30;;;1.20;;
6529;SDS011;3298;42.688;23.366;2022-10-03T18:25:49;3.80;;;1.57;;
6529;SDS011;3298;42.688;23.366;2022-10-03T18:28:26;1.30;;;1.20;;
6529;SDS011;3298;42.688;23.366;2022-10-03T18:31:01;1.60;;;1.47;;
6529;SDS011;3298;42.688;23.366;2022-10-03T18:33:32;1.57;;;1.47;;
6529;SDS011;3298;42.688;23.366;2022-10-03T18:36:14;1.23;;;1.13;;
6529;SDS011;3298;42.688;23.366;2022-10-03T18:38:44;1.63;;;1.53;;
6529;SDS011;3298;42.688;23.366;2022-10-03T18:41:14;2.57;;;1.53;;
6529;SDS011;3298;42.688;23.366;2022-10-03T18:43:43;2.27;;;1.23;;
6529;SDS011;3298;42.688;23.366;2022-10-03T18:46:19;1.00;;;1.00;;
6529;SDS011;3298;42.688;23.366;2022-10-03T18:48:53;2.00;;;1.30;;
6529;SDS011;3298;42.688;23.366;2022-10-03T18:51:25;5.60;;;1.13;;
6529;SDS011;3298;42.688;23.366;2022-10-03T18:53:58;1.87;;;1.30;;
6529;SDS011;3298;42.688;23.366;2022-10-03T18:56:30;1.10;;;1.10;;
6529;SDS011;3298;42.688;23.366;2022-10-03T19:01:48;1.00;;;1.00;;
6529;SDS011;3298;42.688;23.366;2022-10-03T19:04:19;3.93;;;1.37;;
6529;SDS011;3298;42.688;23.366;2022-10-03T19:06:59;2.77;;;0.83;;
6529;SDS011;3298;42.688;23.366;2022-10-03T19:09:27;0.67;;;0.67;;
6529;SDS011;3298;42.688;23.366;2022-10-03T19:12:01;2.53;;;1.10;;
6529;SDS011;3298;42.688;23.366;2022-10-03T19:14:37;3.20;;;1.10;;
6529;SDS011;3298;42.688;23.366;2022-10-03T19:17:22;1.60;;;1.37;;
6529;SDS011;3298;42.688;23.366;2022-10-03T19:19:59;0.80;;;0.80;;
6529;SDS011;3298;42.688;23.366;2022-10-03T19:22:46;5.43;;;1.23;;
6529;SDS011;3298;42.688;23.366;2022-10-03T19:25:23;2.73;;;1.00;;
6529;SDS011;3298;42.688;23.366;2022-10-03T19:27:51;1.67;;;1.00;;
6529;SDS011;3298;42.688;23.366;2022-10-03T19:30:23;1.47;;;0.87;;
6529;SDS011;3298;42.688;23.366;2022-10-03T19:32:54;0.80;;;0.80;;
6529;SDS011;3298;42.688;23.366;2022-10-03T19:35:24;0.87;;;0.87;;
6529;SDS011;3298;42.688;23.366;2022-10-03T19:37:52;1.20;;;1.10;;
6529;SDS011;3298;42.688;23.366;2022-10-03T19:40:28;0.90;;;0.90;;
6529;SDS011;3298;42.688;23.366;2022-10-03T19:43:14;1.17;;;0.77;;
6529;SDS011;3298;42.688;23.366;2022-10-03T19:45:51;1.47;;;0.90;;
6529;SDS011;3298;42.688;23.366;2022-10-03T19:48:26;2.63;;;1.33;;
6529;SDS011;3298;42.688;23.366;2022-10-03T19:51:05;1.20;;;1.10;;
6529;SDS011;3298;42.688;23.366;2022-10-03T19:53:34;0.93;;;0.93;;
6529;SDS011;3298;42.688;23.366;2022-10-03T19:56:10;0.73;;;0.73;;
6529;SDS011;3298;42.688;23.366;2022-10-03T19:58:40;3.70;;;1.07;;
6529;SDS011;3298;42.688;23.366;2022-10-03T20:01:10;2.23;;;1.07;;